AirNav   Everest Fuels
 
 729 users online  

7WI7 Springhill Field Airport
Richland Center, Wisconsin, USA

GOING TO RICHLAND CENTER?


FAA INFORMATION EFFECTIVE 26 JANUARY 2023

Location

FAA Identifier: 7WI7
Lat/Long: 43-27-15.0000N 090-25-38.0000W
43-27.250000N 090-25.633333W
43.4541667,-90.4272222
(estimated)
Elevation: 1160 ft. / 354 m
From city: 7 miles NNW of RICHLAND CENTER, WI
Time zone: UTC -6 (UTC -5 during Daylight Saving Time)
Zip code: 53581

Airport Operations

Airport use: Private use. Permission required prior to landing
Activation date: 11/2016
Control tower: no
ARTCC: CHICAGO CENTER
FSS: GREEN BAY FLIGHT SERVICE STATION
Attendance: UNATNDD
Wind indicator: yes
Segmented circle: no

Airport Communications

WX ASOS at LNR (18 nm SE): 119.425 (608-583-2576)
WX AWOS-3PT at C35 (20 nm E): 118.95 (608-768-0023)

Nearby radio navigation aids

VOR radial/distance  VOR name  Freq  Var
DLLr256/29.5DELLS VORTAC117.0003E

 
NDB name  Hdg/Dist  Freq  Var  ID
MCCOY162/30.541200ECMY -.-. -- -.--

Airport Services

Runway Information

Runway 3/21

Dimensions: 1200 x 60 ft. / 366 x 18 m
Surface: turf, in good condition
RUNWAY 3  RUNWAY 21
Traffic pattern: leftleft
Displaced threshold: 100 ft.no

Airport Ownership and Management from official FAA records

Ownership: Privately-owned
Owner: PAUL PECKHAM
23747 COUNTRY LANE
RICHLAND CENTER, WI 53581
Phone 608-383-3055
Manager: PAUL N PECKHAM
23747 COUNTRY LANE
RICHLAND CENTER, WI 53581
Phone 608-383-3055

Airport Operational Statistics

Aircraft based on the field: 1
Single engine airplanes: 1
    

Additional Remarks

FOR CD CTC CHICAGO ARTCC AT 630-906-8921.

Instrument Procedures

There are no published instrument procedures at 7WI7.

Some nearby airports with instrument procedures:

93C - Richland Airport (12 nm SE)
KLNR - Tri-County Regional Airport (18 nm SE)
C35 - Reedsburg Municipal Airport (20 nm E)
KOVS - Boscobel Airport (21 nm SW)
Y51 - Viroqua Municipal Airport (22 nm W)
 
Loc | Ops | Rwys | IFR | FBO | Links
Com | Nav | Svcs | Stats | Notes
Aerial photo
No photo
 
Airport distance calculator
Flying to Springhill Field Airport? Find the distance to fly.

From to 7WI7

Sunrise and sunset
Times for 27-Jan-2023
 Local
(UTC-6)
 Zulu
(UTC)
Morning civil twilight06:5312:53
Sunrise07:2413:24
Sunset17:0523:05
Evening civil twilight17:3623:36

Current date and time
Zulu (UTC)  27-Jan-2023 11:50:55
Local (UTC-6)  27-Jan-2023 05:50:55
 
METAR
KLNR 
18nm SE 
271056Z AUTO 20010G17KT 10SM OVC050 M07/M12 A2972 RMK AO2 SLP070 T10721117
KC35 
20nm E 
271135Z AUTO 16012G17KT 7SM SCT028 BKN038 OVC060 M08/M11 A2964 RMK AO2 T10811114 PWINO
KOVS 
21nm SW 
271137Z AUTO 19009G17KT 2 1/2SM -SN FEW026 OVC036 M06/M10 A2966 RMK AO2 P0000 T10611100
KY51 
22nm W 
271135Z AUTO 18011G17KT 2 1/2SM BKN015 OVC023 M07/M07 A2958 RMK AO1 T10731073
K82C 
26nm NE 
271135Z AUTO 17012G20KT 5SM -SN BKN037 BKN045 OVC060 M07/M09 A2960 RMK AO2 T10681095
KVOK 
29nm N 
271139Z AUTO 18010KT 5SM BLSN FEW022 M08/M10 A2957 RMK AO2 SNB03E22SNB36E39 SLP033
KDLL 
29nm E 
271135Z AUTO 18014G20KT 10SM BKN047 OVC065 M07/M10 A2966 RMK AO2 T10751097
KCMY 
33nm NW 
271055Z AUTO 19010G15KT 8SM -UP BKN026 BKN038 M07/M09 A2958 RMK AO2 UPB35E39UPB52 CIG 026V038 SLP034 P0000 T10691090 FZRANO $
TAF
KVOK 
29nm N 
261800Z 2618/2723 32012KT 9000 -SN BKN015 OVC030 620153 QNH2985INS BECMG 2620/2621 VRB06KT 9999 NSW BKN008 OVC015 620083 QNH2997INS BECMG 2709/2710 17009KT 9999 BKN015 OVC040 620153 510053 QNH2961INS BECMG 2717/2718 21012G18KT 9999 BKN025 620253 510053 QNH2953INS TX06/2620Z TNM18/2704Z LAST NO AMDS AFT 2623 NEXT 2709
NOTAMs
Click for the latest NOTAMs
NOTAMs are issued by the DoD/FAA and will open in a separate window not controlled by AirNav.

 

 
 

Would you like to see your business listed on this page?

 If your business provides an interesting product or service to pilots, flight crews, aircraft, or users of the Springhill Field Airport, you should consider listing it here.  To start the listing process, click on the button below
 
Add a business
 

Other Pages about Springhill Field Airport

Update a link
 
Copyright © AirNav, LLC. All rights reserved. Privacy Policy  Contact